sensor_id;sensor_type;location;lat;lon;timestamp;P1;durP1;ratioP1;P2;durP2;ratioP2
51852;SDS011;37894;53.172;6.598;2023-11-21T00:00:19;19.02;;;7.00;;
51852;SDS011;37894;53.172;6.598;2023-11-21T00:02:45;23.30;;;7.85;;
51852;SDS011;37894;53.172;6.598;2023-11-21T00:05:12;21.17;;;6.75;;
51852;SDS011;37894;53.172;6.598;2023-11-21T00:07:41;18.45;;;7.03;;
51852;SDS011;37894;53.172;6.598;2023-11-21T00:10:09;18.50;;;7.05;;
51852;SDS011;37894;53.172;6.598;2023-11-21T00:12:35;20.10;;;7.22;;
51852;SDS011;37894;53.172;6.598;2023-11-21T00:15:02;20.48;;;7.80;;
51852;SDS011;37894;53.172;6.598;2023-11-21T00:17:28;19.73;;;7.25;;
51852;SDS011;37894;53.172;6.598;2023-11-21T00:19:54;27.25;;;8.18;;
51852;SDS011;37894;53.172;6.598;2023-11-21T00:22:20;21.83;;;7.47;;
51852;SDS011;37894;53.172;6.598;2023-11-21T00:24:46;23.23;;;7.85;;
51852;SDS011;37894;53.172;6.598;2023-11-21T00:27:13;26.33;;;8.40;;
51852;SDS011;37894;53.172;6.598;2023-11-21T00:29:39;28.27;;;7.88;;
51852;SDS011;37894;53.172;6.598;2023-11-21T00:32:05;30.38;;;9.07;;
51852;SDS011;37894;53.172;6.598;2023-11-21T00:34:31;26.50;;;8.30;;
51852;SDS011;37894;53.172;6.598;2023-11-21T00:36:58;24.80;;;8.57;;
51852;SDS011;37894;53.172;6.598;2023-11-21T00:39:23;25.08;;;8.07;;
51852;SDS011;37894;53.172;6.598;2023-11-21T00:41:50;34.72;;;10.40;;
51852;SDS011;37894;53.172;6.598;2023-11-21T00:44:17;27.90;;;10.55;;
51852;SDS011;37894;53.172;6.598;2023-11-21T00:46:42;35.47;;;9.55;;
51852;SDS011;37894;53.172;6.598;2023-11-21T00:49:08;29.85;;;9.07;;
51852;SDS011;37894;53.172;6.598;2023-11-21T00:51:34;31.95;;;9.40;;
51852;SDS011;37894;53.172;6.598;2023-11-21T00:54:00;21.80;;;8.20;;
51852;SDS011;37894;53.172;6.598;2023-11-21T00:56:26;30.98;;;8.52;;
51852;SDS011;37894;53.172;6.598;2023-11-21T00:58:52;36.78;;;9.27;;
51852;SDS011;37894;53.172;6.598;2023-11-21T01:01:19;27.60;;;9.07;;
51852;SDS011;37894;53.172;6.598;2023-11-21T01:03:48;30.60;;;9.13;;
51852;SDS011;37894;53.172;6.598;2023-11-21T01:06:14;26.65;;;8.75;;
51852;SDS011;37894;53.172;6.598;2023-11-21T01:08:40;31.95;;;9.73;;
51852;SDS011;37894;53.172;6.598;2023-11-21T01:11:06;26.20;;;9.10;;
51852;SDS011;37894;53.172;6.598;2023-11-21T01:13:37;27.13;;;9.48;;
51852;SDS011;37894;53.172;6.598;2023-11-21T01:16:04;31.95;;;8.82;;
51852;SDS011;37894;53.172;6.598;2023-11-21T01:18:31;27.88;;;10.30;;
51852;SDS011;37894;53.172;6.598;2023-11-21T01:20:57;39.80;;;8.77;;
51852;SDS011;37894;53.172;6.598;2023-11-21T01:23:25;26.35;;;8.82;;
51852;SDS011;37894;53.172;6.598;2023-11-21T01:25:52;25.67;;;9.50;;
51852;SDS011;37894;53.172;6.598;2023-11-21T01:28:18;34.92;;;9.38;;
51852;SDS011;37894;53.172;6.598;2023-11-21T01:30:44;21.58;;;8.82;;
51852;SDS011;37894;53.172;6.598;2023-11-21T01:33:11;33.63;;;9.07;;
51852;SDS011;37894;53.172;6.598;2023-11-21T01:35:36;31.10;;;9.93;;
51852;SDS011;37894;53.172;6.598;2023-11-21T01:38:02;30.92;;;10.38;;
51852;SDS011;37894;53.172;6.598;2023-11-21T01:40:33;27.77;;;9.75;;
51852;SDS011;37894;53.172;6.598;2023-11-21T01:42:59;27.63;;;9.35;;
51852;SDS011;37894;53.172;6.598;2023-11-21T01:45:27;26.08;;;9.60;;
51852;SDS011;37894;53.172;6.598;2023-11-21T01:47:56;29.38;;;10.10;;
51852;SDS011;37894;53.172;6.598;2023-11-21T01:50:22;33.30;;;9.35;;
51852;SDS011;37894;53.172;6.598;2023-11-21T01:52:49;29.67;;;9.65;;
51852;SDS011;37894;53.172;6.598;2023-11-21T01:55:16;30.42;;;9.75;;
51852;SDS011;37894;53.172;6.598;2023-11-21T01:57:45;49.13;;;10.88;;
51852;SDS011;37894;53.172;6.598;2023-11-21T02:00:11;26.13;;;9.32;;
51852;SDS011;37894;53.172;6.598;2023-11-21T02:02:44;29.55;;;10.43;;
51852;SDS011;37894;53.172;6.598;2023-11-21T02:05:14;30.77;;;10.25;;
51852;SDS011;37894;53.172;6.598;2023-11-21T02:07:43;29.98;;;9.18;;
51852;SDS011;37894;53.172;6.598;2023-11-21T02:10:12;30.27;;;9.48;;
51852;SDS011;37894;53.172;6.598;2023-11-21T02:12:42;36.50;;;10.57;;
51852;SDS011;37894;53.172;6.598;2023-11-21T02:15:08;35.80;;;9.75;;
51852;SDS011;37894;53.172;6.598;2023-11-21T02:17:43;32.58;;;10.60;;
51852;SDS011;37894;53.172;6.598;2023-11-21T02:20:10;43.75;;;11.55;;
51852;SDS011;37894;53.172;6.598;2023-11-21T02:22:40;37.38;;;9.98;;
51852;SDS011;37894;53.172;6.598;2023-11-21T02:25:07;33.20;;;10.68;;
51852;SDS011;37894;53.172;6.598;2023-11-21T02:27:33;40.63;;;11.77;;
51852;SDS011;37894;53.172;6.598;2023-11-21T02:29:59;35.08;;;11.38;;
51852;SDS011;37894;53.172;6.598;2023-11-21T02:32:26;35.78;;;11.10;;
51852;SDS011;37894;53.172;6.598;2023-11-21T02:34:52;29.63;;;10.68;;
51852;SDS011;37894;53.172;6.598;2023-11-21T02:37:21;36.70;;;12.10;;
51852;SDS011;37894;53.172;6.598;2023-11-21T02:39:46;39.58;;;10.88;;
51852;SDS011;37894;53.172;6.598;2023-11-21T02:42:12;30.38;;;10.02;;
51852;SDS011;37894;53.172;6.598;2023-11-21T02:44:38;28.08;;;10.57;;
51852;SDS011;37894;53.172;6.598;2023-11-21T02:47:03;32.80;;;11.82;;
51852;SDS011;37894;53.172;6.598;2023-11-21T02:49:30;30.58;;;10.70;;
51852;SDS011;37894;53.172;6.598;2023-11-21T02:51:55;30.98;;;11.23;;
51852;SDS011;37894;53.172;6.598;2023-11-21T02:54:21;42.67;;;11.95;;
51852;SDS011;37894;53.172;6.598;2023-11-21T02:56:47;36.97;;;11.63;;
51852;SDS011;37894;53.172;6.598;2023-11-21T02:59:15;34.10;;;12.52;;
51852;SDS011;37894;53.172;6.598;2023-11-21T03:01:41;36.97;;;11.95;;
51852;SDS011;37894;53.172;6.598;2023-11-21T03:04:07;33.63;;;11.27;;
51852;SDS011;37894;53.172;6.598;2023-11-21T03:06:33;32.80;;;11.60;;
51852;SDS011;37894;53.172;6.598;2023-11-21T03:08:59;31.88;;;11.30;;
51852;SDS011;37894;53.172;6.598;2023-11-21T03:11:25;34.10;;;10.98;;
51852;SDS011;37894;53.172;6.598;2023-11-21T03:13:50;35.97;;;11.32;;
51852;SDS011;37894;53.172;6.598;2023-11-21T03:16:16;38.72;;;12.52;;
51852;SDS011;37894;53.172;6.598;2023-11-21T03:18:42;39.58;;;11.20;;
51852;SDS011;37894;53.172;6.598;2023-11-21T03:21:07;35.97;;;11.93;;
51852;SDS011;37894;53.172;6.598;2023-11-21T03:23:36;31.60;;;10.75;;
51852;SDS011;37894;53.172;6.598;2023-11-21T03:26:02;33.58;;;11.80;;
51852;SDS011;37894;53.172;6.598;2023-11-21T03:28:29;50.90;;;13.07;;
51852;SDS011;37894;53.172;6.598;2023-11-21T03:30:55;41.13;;;11.70;;
51852;SDS011;37894;53.172;6.598;2023-11-21T03:33:21;34.88;;;11.73;;
51852;SDS011;37894;53.172;6.598;2023-11-21T03:35:47;43.90;;;12.25;;
51852;SDS011;37894;53.172;6.598;2023-11-21T03:38:14;44.85;;;12.00;;
51852;SDS011;37894;53.172;6.598;2023-11-21T03:40:41;39.30;;;12.02;;
51852;SDS011;37894;53.172;6.598;2023-11-21T03:43:06;45.25;;;11.82;;
51852;SDS011;37894;53.172;6.598;2023-11-21T03:45:32;38.35;;;12.02;;
51852;SDS011;37894;53.172;6.598;2023-11-21T03:47:58;42.83;;;12.85;;
51852;SDS011;37894;53.172;6.598;2023-11-21T03:50:26;40.17;;;13.07;;
51852;SDS011;37894;53.172;6.598;2023-11-21T03:52:55;39.22;;;13.00;;
51852;SDS011;37894;53.172;6.598;2023-11-21T03:55:21;48.90;;;13.63;;
51852;SDS011;37894;53.172;6.598;2023-11-21T03:57:48;55.40;;;13.82;;
51852;SDS011;37894;53.172;6.598;2023-11-21T04:00:14;33.92;;;11.85;;
51852;SDS011;37894;53.172;6.598;2023-11-21T04:02:40;47.47;;;13.00;;
51852;SDS011;37894;53.172;6.598;2023-11-21T04:05:06;41.38;;;12.10;;
51852;SDS011;37894;53.172;6.598;2023-11-21T04:07:32;55.47;;;13.38;;
51852;SDS011;37894;53.172;6.598;2023-11-21T04:09:59;40.05;;;13.65;;
51852;SDS011;37894;53.172;6.598;2023-11-21T04:12:24;40.63;;;12.48;;
51852;SDS011;37894;53.172;6.598;2023-11-21T04:14:51;37.88;;;13.05;;
51852;SDS011;37894;53.172;6.598;2023-11-21T04:17:19;47.72;;;13.65;;
51852;SDS011;37894;53.172;6.598;2023-11-21T04:19:48;46.22;;;13.40;;
51852;SDS011;37894;53.172;6.598;2023-11-21T04:22:14;39.97;;;12.88;;
51852;SDS011;37894;53.172;6.598;2023-11-21T04:24:40;45.00;;;13.18;;
51852;SDS011;37894;53.172;6.598;2023-11-21T04:27:05;46.40;;;13.32;;
51852;SDS011;37894;53.172;6.598;2023-11-21T04:29:31;40.97;;;13.57;;
51852;SDS011;37894;53.172;6.598;2023-11-21T04:31:57;43.63;;;13.32;;
51852;SDS011;37894;53.172;6.598;2023-11-21T04:34:23;49.80;;;12.60;;
51852;SDS011;37894;53.172;6.598;2023-11-21T04:36:49;40.03;;;13.20;;
51852;SDS011;37894;53.172;6.598;2023-11-21T04:39:15;46.10;;;14.73;;
51852;SDS011;37894;53.172;6.598;2023-11-21T04:41:40;40.28;;;12.82;;
51852;SDS011;37894;53.172;6.598;2023-11-21T04:44:06;48.13;;;14.68;;
51852;SDS011;37894;53.172;6.598;2023-11-21T04:46:32;41.47;;;13.55;;
51852;SDS011;37894;53.172;6.598;2023-11-21T04:48:58;42.65;;;14.35;;
51852;SDS011;37894;53.172;6.598;2023-11-21T04:51:24;41.25;;;14.65;;
51852;SDS011;37894;53.172;6.598;2023-11-21T04:53:49;41.28;;;14.48;;
51852;SDS011;37894;53.172;6.598;2023-11-21T04:56:15;50.65;;;14.48;;
51852;SDS011;37894;53.172;6.598;2023-11-21T04:58:41;52.58;;;13.77;;
51852;SDS011;37894;53.172;6.598;2023-11-21T05:01:07;44.22;;;13.38;;
51852;SDS011;37894;53.172;6.598;2023-11-21T05:03:33;52.65;;;13.35;;
51852;SDS011;37894;53.172;6.598;2023-11-21T05:05:59;50.38;;;13.73;;
51852;SDS011;37894;53.172;6.598;2023-11-21T05:08:25;50.70;;;13.50;;
51852;SDS011;37894;53.172;6.598;2023-11-21T05:10:51;37.45;;;12.50;;
51852;SDS011;37894;53.172;6.598;2023-11-21T05:13:18;45.05;;;14.00;;
51852;SDS011;37894;53.172;6.598;2023-11-21T05:15:45;40.45;;;12.90;;
51852;SDS011;37894;53.172;6.598;2023-11-21T05:18:11;46.47;;;13.05;;
51852;SDS011;37894;53.172;6.598;2023-11-21T05:20:38;46.15;;;13.55;;
51852;SDS011;37894;53.172;6.598;2023-11-21T05:23:06;37.47;;;12.40;;
51852;SDS011;37894;53.172;6.598;2023-11-21T05:25:33;37.88;;;12.73;;
51852;SDS011;37894;53.172;6.598;2023-11-21T05:27:59;46.78;;;12.57;;
51852;SDS011;37894;53.172;6.598;2023-11-21T05:30:26;42.92;;;12.70;;
51852;SDS011;37894;53.172;6.598;2023-11-21T05:32:53;43.65;;;12.23;;
51852;SDS011;37894;53.172;6.598;2023-11-21T05:35:19;44.65;;;12.27;;
51852;SDS011;37894;53.172;6.598;2023-11-21T05:37:46;36.33;;;12.48;;
51852;SDS011;37894;53.172;6.598;2023-11-21T05:40:12;37.47;;;12.50;;
51852;SDS011;37894;53.172;6.598;2023-11-21T05:42:38;35.22;;;11.38;;
51852;SDS011;37894;53.172;6.598;2023-11-21T05:45:05;29.98;;;10.32;;
51852;SDS011;37894;53.172;6.598;2023-11-21T05:47:36;25.75;;;9.50;;
51852;SDS011;37894;53.172;6.598;2023-11-21T05:50:04;28.30;;;10.48;;
51852;SDS011;37894;53.172;6.598;2023-11-21T05:52:30;31.02;;;10.57;;
51852;SDS011;37894;53.172;6.598;2023-11-21T05:54:57;25.77;;;10.00;;
51852;SDS011;37894;53.172;6.598;2023-11-21T05:57:23;26.20;;;10.18;;
51852;SDS011;37894;53.172;6.598;2023-11-21T05:59:49;22.30;;;10.05;;
51852;SDS011;37894;53.172;6.598;2023-11-21T06:02:14;23.30;;;9.93;;
51852;SDS011;37894;53.172;6.598;2023-11-21T06:04:40;28.52;;;10.90;;
51852;SDS011;37894;53.172;6.598;2023-11-21T06:07:06;20.92;;;9.65;;
51852;SDS011;37894;53.172;6.598;2023-11-21T06:09:32;27.75;;;10.93;;
51852;SDS011;37894;53.172;6.598;2023-11-21T06:11:58;25.60;;;10.35;;
51852;SDS011;37894;53.172;6.598;2023-11-21T06:14:23;24.40;;;10.43;;
51852;SDS011;37894;53.172;6.598;2023-11-21T06:16:49;23.23;;;9.20;;
51852;SDS011;37894;53.172;6.598;2023-11-21T06:19:16;22.00;;;9.88;;
51852;SDS011;37894;53.172;6.598;2023-11-21T06:21:45;25.27;;;10.45;;
51852;SDS011;37894;53.172;6.598;2023-11-21T06:24:11;25.27;;;10.50;;
51852;SDS011;37894;53.172;6.598;2023-11-21T06:26:37;29.00;;;10.90;;
51852;SDS011;37894;53.172;6.598;2023-11-21T06:29:03;25.85;;;10.27;;
51852;SDS011;37894;53.172;6.598;2023-11-21T06:31:30;25.15;;;9.60;;
51852;SDS011;37894;53.172;6.598;2023-11-21T06:33:58;24.55;;;9.02;;
51852;SDS011;37894;53.172;6.598;2023-11-21T06:36:24;26.90;;;11.13;;
51852;SDS011;37894;53.172;6.598;2023-11-21T06:38:51;26.90;;;10.68;;
51852;SDS011;37894;53.172;6.598;2023-11-21T06:41:17;26.98;;;10.85;;
51852;SDS011;37894;53.172;6.598;2023-11-21T06:43:43;32.80;;;12.10;;
51852;SDS011;37894;53.172;6.598;2023-11-21T06:46:11;37.85;;;13.27;;
51852;SDS011;37894;53.172;6.598;2023-11-21T06:48:39;38.25;;;14.27;;
51852;SDS011;37894;53.172;6.598;2023-11-21T06:51:07;33.45;;;13.85;;
51852;SDS011;37894;53.172;6.598;2023-11-21T06:53:33;34.55;;;14.38;;
51852;SDS011;37894;53.172;6.598;2023-11-21T06:55:59;37.30;;;13.73;;
51852;SDS011;37894;53.172;6.598;2023-11-21T06:58:25;33.78;;;12.45;;
51852;SDS011;37894;53.172;6.598;2023-11-21T07:00:51;39.25;;;13.43;;
51852;SDS011;37894;53.172;6.598;2023-11-21T07:03:17;33.15;;;13.02;;
51852;SDS011;37894;53.172;6.598;2023-11-21T07:05:44;35.00;;;12.45;;
51852;SDS011;37894;53.172;6.598;2023-11-21T07:08:10;31.10;;;11.70;;
51852;SDS011;37894;53.172;6.598;2023-11-21T07:10:37;34.50;;;12.82;;
51852;SDS011;37894;53.172;6.598;2023-11-21T07:13:03;31.52;;;12.93;;
51852;SDS011;37894;53.172;6.598;2023-11-21T07:15:29;24.00;;;10.57;;
51852;SDS011;37894;53.172;6.598;2023-11-21T07:17:55;24.05;;;9.52;;
51852;SDS011;37894;53.172;6.598;2023-11-21T07:20:21;23.20;;;9.77;;
51852;SDS011;37894;53.172;6.598;2023-11-21T07:22:47;22.33;;;9.52;;
51852;SDS011;37894;53.172;6.598;2023-11-21T07:25:12;27.23;;;11.70;;
51852;SDS011;37894;53.172;6.598;2023-11-21T07:27:38;29.23;;;12.68;;
51852;SDS011;37894;53.172;6.598;2023-11-21T07:30:04;35.88;;;14.82;;
51852;SDS011;37894;53.172;6.598;2023-11-21T07:32:32;32.58;;;15.52;;
51852;SDS011;37894;53.172;6.598;2023-11-21T07:34:58;37.65;;;15.30;;
51852;SDS011;37894;53.172;6.598;2023-11-21T07:37:25;37.30;;;15.43;;
51852;SDS011;37894;53.172;6.598;2023-11-21T07:39:53;38.42;;;16.80;;
51852;SDS011;37894;53.172;6.598;2023-11-21T07:42:22;39.70;;;16.52;;
51852;SDS011;37894;53.172;6.598;2023-11-21T07:44:51;40.30;;;16.85;;
51852;SDS011;37894;53.172;6.598;2023-11-21T07:47:17;39.92;;;15.60;;
51852;SDS011;37894;53.172;6.598;2023-11-21T07:49:43;44.45;;;18.13;;
51852;SDS011;37894;53.172;6.598;2023-11-21T07:52:10;37.95;;;17.85;;
51852;SDS011;37894;53.172;6.598;2023-11-21T07:54:36;37.10;;;16.05;;
51852;SDS011;37894;53.172;6.598;2023-11-21T07:57:01;36.67;;;17.80;;
51852;SDS011;37894;53.172;6.598;2023-11-21T07:59:29;41.95;;;16.75;;
51852;SDS011;37894;53.172;6.598;2023-11-21T08:01:55;35.97;;;16.98;;
51852;SDS011;37894;53.172;6.598;2023-11-21T08:04:21;44.15;;;17.50;;
51852;SDS011;37894;53.172;6.598;2023-11-21T08:06:47;41.17;;;17.83;;
51852;SDS011;37894;53.172;6.598;2023-11-21T08:09:12;44.88;;;18.00;;
51852;SDS011;37894;53.172;6.598;2023-11-21T08:11:38;47.20;;;19.77;;
51852;SDS011;37894;53.172;6.598;2023-11-21T08:14:04;44.08;;;18.98;;
51852;SDS011;37894;53.172;6.598;2023-11-21T08:16:30;39.95;;;17.45;;
51852;SDS011;37894;53.172;6.598;2023-11-21T08:18:56;40.40;;;17.77;;
51852;SDS011;37894;53.172;6.598;2023-11-21T08:21:22;38.03;;;18.25;;
51852;SDS011;37894;53.172;6.598;2023-11-21T08:23:50;42.97;;;18.80;;
51852;SDS011;37894;53.172;6.598;2023-11-21T08:26:19;39.47;;;17.58;;
51852;SDS011;37894;53.172;6.598;2023-11-21T08:28:45;38.08;;;17.98;;
51852;SDS011;37894;53.172;6.598;2023-11-21T08:31:12;38.97;;;17.95;;
51852;SDS011;37894;53.172;6.598;2023-11-21T08:33:38;42.25;;;17.92;;
51852;SDS011;37894;53.172;6.598;2023-11-21T08:36:08;36.25;;;17.92;;
51852;SDS011;37894;53.172;6.598;2023-11-21T08:38:35;34.33;;;17.10;;
51852;SDS011;37894;53.172;6.598;2023-11-21T08:41:05;42.25;;;20.02;;
51852;SDS011;37894;53.172;6.598;2023-11-21T08:43:34;39.33;;;18.48;;
51852;SDS011;37894;53.172;6.598;2023-11-21T08:46:00;37.22;;;18.20;;
51852;SDS011;37894;53.172;6.598;2023-11-21T08:48:26;42.33;;;19.00;;
51852;SDS011;37894;53.172;6.598;2023-11-21T08:50:54;43.20;;;19.58;;
51852;SDS011;37894;53.172;6.598;2023-11-21T08:53:20;38.05;;;18.13;;
51852;SDS011;37894;53.172;6.598;2023-11-21T08:55:46;39.22;;;19.45;;
51852;SDS011;37894;53.172;6.598;2023-11-21T08:58:12;40.58;;;18.55;;
51852;SDS011;37894;53.172;6.598;2023-11-21T09:00:39;36.33;;;18.73;;
51852;SDS011;37894;53.172;6.598;2023-11-21T09:03:05;38.60;;;19.17;;
51852;SDS011;37894;53.172;6.598;2023-11-21T09:05:34;38.13;;;18.85;;
51852;SDS011;37894;53.172;6.598;2023-11-21T09:08:03;38.28;;;19.00;;
51852;SDS011;37894;53.172;6.598;2023-11-21T09:10:29;30.10;;;16.52;;
51852;SDS011;37894;53.172;6.598;2023-11-21T09:12:56;30.05;;;16.67;;
51852;SDS011;37894;53.172;6.598;2023-11-21T09:15:22;25.63;;;15.02;;
51852;SDS011;37894;53.172;6.598;2023-11-21T09:17:47;26.83;;;14.73;;
51852;SDS011;37894;53.172;6.598;2023-11-21T09:20:13;22.83;;;13.75;;
51852;SDS011;37894;53.172;6.598;2023-11-21T09:22:40;22.88;;;14.10;;
51852;SDS011;37894;53.172;6.598;2023-11-21T09:25:06;22.50;;;13.82;;
51852;SDS011;37894;53.172;6.598;2023-11-21T09:27:34;23.13;;;14.30;;
51852;SDS011;37894;53.172;6.598;2023-11-21T09:30:03;24.85;;;14.80;;
51852;SDS011;37894;53.172;6.598;2023-11-21T09:32:30;22.13;;;14.23;;
51852;SDS011;37894;53.172;6.598;2023-11-21T09:34:56;24.05;;;13.57;;
51852;SDS011;37894;53.172;6.598;2023-11-21T09:37:23;20.92;;;12.77;;
51852;SDS011;37894;53.172;6.598;2023-11-21T09:39:52;21.42;;;13.55;;
51852;SDS011;37894;53.172;6.598;2023-11-21T09:42:25;20.30;;;13.27;;
51852;SDS011;37894;53.172;6.598;2023-11-21T09:44:58;20.38;;;12.95;;
51852;SDS011;37894;53.172;6.598;2023-11-21T09:47:38;19.30;;;13.07;;
51852;SDS011;37894;53.172;6.598;2023-11-21T09:50:04;21.55;;;12.27;;
51852;SDS011;37894;53.172;6.598;2023-11-21T09:52:33;19.45;;;12.27;;
51852;SDS011;37894;53.172;6.598;2023-11-21T09:55:22;22.10;;;12.48;;
51852;SDS011;37894;53.172;6.598;2023-11-21T09:57:52;18.92;;;11.77;;
51852;SDS011;37894;53.172;6.598;2023-11-21T10:00:19;19.25;;;11.95;;
51852;SDS011;37894;53.172;6.598;2023-11-21T10:02:48;18.00;;;10.35;;
51852;SDS011;37894;53.172;6.598;2023-11-21T10:05:16;16.75;;;10.05;;
51852;SDS011;37894;53.172;6.598;2023-11-21T10:07:45;19.25;;;10.63;;
51852;SDS011;37894;53.172;6.598;2023-11-21T10:10:12;17.50;;;10.75;;
51852;SDS011;37894;53.172;6.598;2023-11-21T10:12:41;16.98;;;10.50;;
51852;SDS011;37894;53.172;6.598;2023-11-21T10:15:09;16.85;;;10.77;;
51852;SDS011;37894;53.172;6.598;2023-11-21T10:17:40;18.02;;;9.77;;
51852;SDS011;37894;53.172;6.598;2023-11-21T10:20:13;15.50;;;10.02;;
51852;SDS011;37894;53.172;6.598;2023-11-21T10:22:40;17.95;;;10.10;;
51852;SDS011;37894;53.172;6.598;2023-11-21T10:25:07;13.98;;;8.85;;
51852;SDS011;37894;53.172;6.598;2023-11-21T10:27:39;13.57;;;8.10;;
51852;SDS011;37894;53.172;6.598;2023-11-21T10:30:06;13.43;;;8.43;;
51852;SDS011;37894;53.172;6.598;2023-11-21T10:32:33;11.88;;;8.05;;
51852;SDS011;37894;53.172;6.598;2023-11-21T10:34:59;13.55;;;8.38;;
51852;SDS011;37894;53.172;6.598;2023-11-21T10:37:27;14.18;;;9.07;;
51852;SDS011;37894;53.172;6.598;2023-11-21T10:39:59;11.18;;;7.35;;
51852;SDS011;37894;53.172;6.598;2023-11-21T10:42:25;11.98;;;8.00;;
51852;SDS011;37894;53.172;6.598;2023-11-21T10:44:52;11.57;;;7.22;;
51852;SDS011;37894;53.172;6.598;2023-11-21T10:47:19;13.25;;;7.53;;
51852;SDS011;37894;53.172;6.598;2023-11-21T10:49:45;12.07;;;6.85;;
51852;SDS011;37894;53.172;6.598;2023-11-21T10:52:14;12.40;;;7.15;;
51852;SDS011;37894;53.172;6.598;2023-11-21T10:54:45;11.13;;;7.28;;
51852;SDS011;37894;53.172;6.598;2023-11-21T10:57:13;9.95;;;6.22;;
51852;SDS011;37894;53.172;6.598;2023-11-21T10:59:42;9.57;;;6.05;;
51852;SDS011;37894;53.172;6.598;2023-11-21T11:02:21;9.50;;;6.25;;
51852;SDS011;37894;53.172;6.598;2023-11-21T11:04:59;11.73;;;6.32;;
51852;SDS011;37894;53.172;6.598;2023-11-21T11:07:26;13.10;;;6.47;;
51852;SDS011;37894;53.172;6.598;2023-11-21T11:09:53;9.25;;;5.93;;
51852;SDS011;37894;53.172;6.598;2023-11-21T11:12:20;9.63;;;5.88;;
51852;SDS011;37894;53.172;6.598;2023-11-21T11:14:46;9.02;;;5.53;;
51852;SDS011;37894;53.172;6.598;2023-11-21T11:17:13;8.95;;;6.10;;
51852;SDS011;37894;53.172;6.598;2023-11-21T11:19:39;9.10;;;5.60;;
51852;SDS011;37894;53.172;6.598;2023-11-21T11:22:12;9.93;;;5.38;;
51852;SDS011;37894;53.172;6.598;2023-11-21T11:33:14;8.32;;;5.53;;
51852;SDS011;37894;53.172;6.598;2023-11-21T11:38:47;8.32;;;5.15;;
51852;SDS011;37894;53.172;6.598;2023-11-21T11:41:27;10.85;;;6.30;;
51852;SDS011;37894;53.172;6.598;2023-11-21T11:43:58;9.82;;;5.97;;
51852;SDS011;37894;53.172;6.598;2023-11-21T11:49:24;8.35;;;5.15;;
51852;SDS011;37894;53.172;6.598;2023-11-21T11:54:56;8.90;;;5.70;;
51852;SDS011;37894;53.172;6.598;2023-11-21T11:57:25;9.43;;;5.45;;
51852;SDS011;37894;53.172;6.598;2023-11-21T12:02:41;11.23;;;6.03;;
51852;SDS011;37894;53.172;6.598;2023-11-21T12:05:16;9.85;;;5.68;;
51852;SDS011;37894;53.172;6.598;2023-11-21T12:07:47;9.45;;;5.70;;
51852;SDS011;37894;53.172;6.598;2023-11-21T12:10:14;10.15;;;5.95;;
51852;SDS011;37894;53.172;6.598;2023-11-21T12:12:49;9.32;;;5.50;;
51852;SDS011;37894;53.172;6.598;2023-11-21T12:15:20;8.80;;;5.65;;
51852;SDS011;37894;53.172;6.598;2023-11-21T12:17:46;8.02;;;4.82;;
51852;SDS011;37894;53.172;6.598;2023-11-21T12:20:14;11.25;;;6.22;;
51852;SDS011;37894;53.172;6.598;2023-11-21T12:25:20;10.13;;;5.93;;
51852;SDS011;37894;53.172;6.598;2023-11-21T12:27:50;10.20;;;6.22;;
51852;SDS011;37894;53.172;6.598;2023-11-21T12:30:18;11.32;;;6.70;;
51852;SDS011;37894;53.172;6.598;2023-11-21T12:32:47;10.63;;;6.60;;
51852;SDS011;37894;53.172;6.598;2023-11-21T12:35:14;10.23;;;6.32;;
51852;SDS011;37894;53.172;6.598;2023-11-21T12:37:44;11.35;;;6.43;;
51852;SDS011;37894;53.172;6.598;2023-11-21T12:40:14;11.05;;;6.53;;
51852;SDS011;37894;53.172;6.598;2023-11-21T12:42:41;9.15;;;6.03;;
51852;SDS011;37894;53.172;6.598;2023-11-21T12:48:05;11.10;;;7.03;;
51852;SDS011;37894;53.172;6.598;2023-11-21T12:50:36;10.30;;;6.40;;
51852;SDS011;37894;53.172;6.598;2023-11-21T12:53:06;9.82;;;6.13;;
51852;SDS011;37894;53.172;6.598;2023-11-21T12:55:41;9.35;;;6.35;;
51852;SDS011;37894;53.172;6.598;2023-11-21T12:58:15;10.40;;;6.60;;
51852;SDS011;37894;53.172;6.598;2023-11-21T13:00:47;10.95;;;6.88;;
51852;SDS011;37894;53.172;6.598;2023-11-21T13:03:14;12.13;;;7.13;;
51852;SDS011;37894;53.172;6.598;2023-11-21T13:05:43;9.98;;;6.70;;
51852;SDS011;37894;53.172;6.598;2023-11-21T13:08:11;9.55;;;6.68;;
51852;SDS011;37894;53.172;6.598;2023-11-21T13:10:41;9.38;;;6.47;;
51852;SDS011;37894;53.172;6.598;2023-11-21T13:13:11;12.25;;;6.75;;
51852;SDS011;37894;53.172;6.598;2023-11-21T13:15:51;10.90;;;6.72;;
51852;SDS011;37894;53.172;6.598;2023-11-21T13:18:17;11.02;;;6.03;;
51852;SDS011;37894;53.172;6.598;2023-11-21T13:20:46;9.05;;;6.03;;
51852;SDS011;37894;53.172;6.598;2023-11-21T13:23:12;9.05;;;5.70;;
51852;SDS011;37894;53.172;6.598;2023-11-21T13:25:41;9.13;;;5.72;;
51852;SDS011;37894;53.172;6.598;2023-11-21T13:28:07;9.30;;;5.68;;
51852;SDS011;37894;53.172;6.598;2023-11-21T13:30:34;10.23;;;5.60;;
51852;SDS011;37894;53.172;6.598;2023-11-21T13:33:01;8.00;;;5.28;;
51852;SDS011;37894;53.172;6.598;2023-11-21T13:35:31;9.73;;;5.35;;
51852;SDS011;37894;53.172;6.598;2023-11-21T13:38:18;9.45;;;5.65;;
51852;SDS011;37894;53.172;6.598;2023-11-21T13:40:54;8.05;;;5.20;;
51852;SDS011;37894;53.172;6.598;2023-11-21T13:43:21;9.50;;;5.20;;
51852;SDS011;37894;53.172;6.598;2023-11-21T13:45:50;8.23;;;5.32;;
51852;SDS011;37894;53.172;6.598;2023-11-21T13:48:23;8.20;;;4.80;;
51852;SDS011;37894;53.172;6.598;2023-11-21T13:51:11;9.10;;;5.55;;
51852;SDS011;37894;53.172;6.598;2023-11-21T13:53:46;8.05;;;4.88;;
51852;SDS011;37894;53.172;6.598;2023-11-21T13:58:49;10.25;;;5.50;;
51852;SDS011;37894;53.172;6.598;2023-11-21T14:01:23;8.25;;;4.65;;
51852;SDS011;37894;53.172;6.598;2023-11-21T14:03:59;11.50;;;5.30;;
51852;SDS011;37894;53.172;6.598;2023-11-21T14:06:42;8.35;;;5.57;;
51852;SDS011;37894;53.172;6.598;2023-11-21T14:09:16;7.80;;;5.07;;
51852;SDS011;37894;53.172;6.598;2023-11-21T14:11:50;9.20;;;5.50;;
51852;SDS011;37894;53.172;6.598;2023-11-21T14:14:18;8.55;;;5.10;;
51852;SDS011;37894;53.172;6.598;2023-11-21T14:16:49;7.73;;;5.37;;
51852;SDS011;37894;53.172;6.598;2023-11-21T14:19:16;8.65;;;5.07;;
51852;SDS011;37894;53.172;6.598;2023-11-21T14:21:45;7.55;;;4.90;;
51852;SDS011;37894;53.172;6.598;2023-11-21T14:24:11;7.72;;;4.70;;
51852;SDS011;37894;53.172;6.598;2023-11-21T14:26:41;7.47;;;4.55;;
51852;SDS011;37894;53.172;6.598;2023-11-21T14:29:08;7.53;;;4.70;;
51852;SDS011;37894;53.172;6.598;2023-11-21T14:31:36;11.23;;;4.65;;
51852;SDS011;37894;53.172;6.598;2023-11-21T14:34:01;8.68;;;4.47;;
51852;SDS011;37894;53.172;6.598;2023-11-21T14:36:28;9.07;;;4.32;;
51852;SDS011;37894;53.172;6.598;2023-11-21T14:38:54;9.57;;;4.93;;
51852;SDS011;37894;53.172;6.598;2023-11-21T14:41:19;6.60;;;4.28;;
51852;SDS011;37894;53.172;6.598;2023-11-21T14:43:45;8.60;;;4.88;;
51852;SDS011;37894;53.172;6.598;2023-11-21T14:46:14;11.05;;;4.40;;
51852;SDS011;37894;53.172;6.598;2023-11-21T14:48:43;7.07;;;4.50;;
51852;SDS011;37894;53.172;6.598;2023-11-21T14:51:21;7.40;;;4.30;;
51852;SDS011;37894;53.172;6.598;2023-11-21T14:53:56;9.15;;;4.75;;
51852;SDS011;37894;53.172;6.598;2023-11-21T14:56:31;7.80;;;3.95;;
51852;SDS011;37894;53.172;6.598;2023-11-21T14:58:59;10.93;;;4.78;;